Time;durP1;ratioP1;P1;durP2;ratioP2;P2;SDS_P1;SDS_P2;PMS_P1;PMS_P2;Temp;Humidity;BMP_temperature;BMP_pressure;BME280_temperature;BME280_humidity;BME280_pressure;Samples;Min_cycle;Max_cycle;Signal;HPM_P1;HPM_P2
2022/12/13 00:00:25;;;;;;;21.92;13.93;;;21.60;64.90;;;;;;5073691;28;20078;-69
2022/12/13 00:02:51;;;;;;;22.17;14.65;;;21.70;64.70;;;;;;5073537;28;20036;-69
2022/12/13 00:05:17;;;;;;;22.38;14.68;;;21.80;64.60;;;;;;5073486;28;20059;-69
2022/12/13 00:07:43;;;;;;;27.10;13.75;;;21.70;64.60;;;;;;5073571;28;20466;-69
2022/12/13 00:10:09;;;;;;;20.25;13.95;;;21.70;64.50;;;;;;5073413;28;20036;-69
2022/12/13 00:12:35;;;;;;;24.63;13.50;;;21.60;64.90;;;;;;5062449;28;20458;-69
2022/12/13 00:15:01;;;;;;;22.33;14.13;;;21.70;64.90;;;;;;5073523;28;20039;-69
2022/12/13 00:17:27;;;;;;;19.52;12.38;;;21.50;64.80;;;;;;5073419;28;20029;-69
2022/12/13 00:19:53;;;;;;;22.17;12.90;;;21.50;65.00;;;;;;5073285;28;20413;-69
2022/12/13 00:22:19;;;;;;;16.92;12.60;;;21.50;64.70;;;;;;5073434;28;20037;-69
2022/12/13 00:24:45;;;;;;;17.52;12.45;;;21.50;64.80;;;;;;5073443;28;20039;-69
2022/12/13 00:27:11;;;;;;;21.20;12.57;;;21.50;65.00;;;;;;5072724;28;20058;-69
2022/12/13 00:29:37;;;;;;;23.40;13.50;;;21.40;65.20;;;;;;5073232;28;20120;-69
2022/12/13 00:32:03;;;;;;;18.15;11.95;;;21.50;65.20;;;;;;5072894;28;20043;-69
2022/12/13 00:34:29;;;;;;;18.38;11.25;;;21.50;65.20;;;;;;5072801;28;20043;-69
2022/12/13 00:36:57;;;;;;;19.02;11.70;;;21.40;65.10;;;;;;5072778;28;20430;-69
2022/12/13 00:39:25;;;;;;;19.75;11.57;;;21.50;64.80;;;;;;5072997;28;20036;-69
2022/12/13 00:41:51;;;;;;;15.82;9.82;;;21.50;64.50;;;;;;5071883;28;20527;-69
2022/12/13 00:44:18;;;;;;;16.55;9.95;;;21.40;64.50;;;;;;5072039;28;20041;-69
2022/12/13 00:46:44;;;;;;;14.20;9.35;;;21.40;64.50;;;;;;5053918;28;20059;-69
2022/12/13 00:49:12;;;;;;;14.10;9.70;;;21.40;64.30;;;;;;5072171;28;20025;-69
2022/12/13 00:51:38;;;;;;;14.60;9.30;;;21.50;64.20;;;;;;5072518;28;20060;-69
2022/12/13 00:54:05;;;;;;;13.43;8.93;;;21.50;64.00;;;;;;5071773;28;20428;-69
2022/12/13 00:56:32;;;;;;;12.88;8.32;;;21.50;64.00;;;;;;5054325;28;20028;-69
2022/12/13 00:58:58;;;;;;;15.65;9.50;;;21.40;64.00;;;;;;5036426;28;20181;-69
2022/12/13 01:01:30;;;;;;;15.40;9.25;;;21.40;64.20;;;;;;5072290;28;20358;-69
2022/12/13 01:03:58;;;;;;;15.23;8.75;;;21.40;63.90;;;;;;5054029;28;20036;-69
2022/12/13 01:06:40;;;;;;;14.45;8.75;;;21.20;64.00;;;;;;5071891;28;20565;-69
2022/12/13 01:09:13;;;;;;;14.25;9.18;;;21.30;64.20;;;;;;5071984;28;20032;-69
2022/12/13 01:11:39;;;;;;;13.63;8.95;;;21.20;62.80;;;;;;5071702;28;20036;-69
2022/12/13 01:14:05;;;;;;;15.05;9.02;;;21.30;64.50;;;;;;5071947;28;20060;-69
2022/12/13 01:16:31;;;;;;;15.50;9.00;;;21.30;64.20;;;;;;5072256;28;20036;-69
2022/12/13 01:18:57;;;;;;;12.80;8.27;;;21.40;63.70;;;;;;5072308;28;20028;-69
2022/12/13 01:21:23;;;;;;;13.82;8.52;;;21.30;64.10;;;;;;5071562;28;20508;-69
2022/12/13 01:23:50;;;;;;;14.13;9.68;;;21.30;63.80;;;;;;5071120;28;20112;-70
2022/12/13 01:26:19;;;;;;;13.93;8.48;;;21.20;63.70;;;;;;5071172;28;20557;-69
2022/12/13 01:28:45;;;;;;;11.05;7.93;;;21.40;64.60;;;;;;5071562;28;20032;-69
2022/12/13 01:31:14;;;;;;;11.45;7.53;;;21.30;64.30;;;;;;5071985;28;20027;-69
2022/12/13 01:33:41;;;;;;;14.15;8.90;;;21.30;64.30;;;;;;5072045;28;20119;-69
2022/12/13 01:36:10;;;;;;;12.93;7.40;;;21.30;64.30;;;;;;5071925;28;20478;-69
2022/12/13 01:38:36;;;;;;;16.58;8.95;;;21.30;64.20;;;;;;5071036;28;20028;-69
2022/12/13 01:41:03;;;;;;;14.00;8.13;;;21.20;64.10;;;;;;5053663;28;20032;-69
2022/12/13 01:43:29;;;;;;;12.55;8.60;;;21.40;64.10;;;;;;5070952;28;20079;-69
2022/12/13 01:45:55;;;;;;;15.35;9.25;;;21.30;64.10;;;;;;5070832;28;20072;-69
2022/12/13 01:48:27;;;;;;;15.43;9.73;;;21.30;64.20;;;;;;5071351;28;20040;-69
2022/12/13 01:50:56;;;;;;;14.77;8.40;;;21.40;64.20;;;;;;5035464;28;20036;-69
2022/12/13 01:53:27;;;;;;;16.77;9.52;;;21.30;63.70;;;;;;5071268;28;20064;-69
2022/12/13 01:55:56;;;;;;;18.38;11.05;;;21.30;63.80;;;;;;5071036;28;20040;-69
2022/12/13 01:58:23;;;;;;;16.33;10.27;;;21.20;63.90;;;;;;5071025;28;20037;-69
2022/12/13 02:00:50;;;;;;;17.40;10.60;;;21.20;64.00;;;;;;5070966;28;20026;-69
2022/12/13 02:03:17;;;;;;;17.88;10.95;;;21.30;64.30;;;;;;5071124;28;20090;-69
2022/12/13 02:05:51;;;;;;;15.90;10.13;;;21.10;64.60;;;;;;5070918;28;20039;-69
2022/12/13 02:08:18;;;;;;;15.20;9.70;;;21.10;64.20;;;;;;5070787;28;20036;-69
2022/12/13 02:10:45;;;;;;;13.07;9.70;;;21.00;64.40;;;;;;5019242;28;20094;-69
2022/12/13 02:13:11;;;;;;;15.38;8.75;;;21.10;64.70;;;;;;5067715;28;20044;-69
2022/12/13 02:16:09;;;;;;;13.63;9.43;;;21.00;64.50;;;;;;5053072;28;20041;-69
2022/12/13 02:19:11;;;;;;;14.35;9.68;;;21.00;64.50;;;;;;4966744;28;20124;-69
2022/12/13 02:22:02;;;;;;;11.20;8.57;;;21.10;64.70;;;;;;4969859;28;20066;-69
2022/12/13 02:24:28;;;;;;;15.88;10.20;;;21.00;64.40;;;;;;4969599;28;20065;-69
2022/12/13 02:27:12;;;;;;;16.08;9.63;;;21.00;64.40;;;;;;4969598;28;20515;-69
2022/12/13 02:30:00;;;;;;;15.13;8.80;;;20.80;64.60;;;;;;4969713;28;20086;-69
2022/12/13 02:32:32;;;;;;;17.50;9.10;;;20.90;64.90;;;;;;4969796;28;20263;-69
2022/12/13 02:35:23;;;;;;;15.27;9.20;;;20.90;65.10;;;;;;4969504;28;20031;-69
2022/12/13 02:38:08;;;;;;;15.60;10.18;;;20.90;64.80;;;;;;4969665;28;20034;-68
2022/12/13 02:40:54;;;;;;;15.15;10.27;;;21.00;64.70;;;;;;4969506;28;20045;-69
2022/12/13 02:43:28;;;;;;;12.27;9.13;;;20.90;64.60;;;;;;4912070;29;20052;-69
2022/12/13 02:45:59;;;;;;;15.73;9.27;;;21.00;64.70;;;;;;4911932;29;20095;-69
2022/12/13 02:48:33;;;;;;;15.60;8.38;;;21.00;64.50;;;;;;4912170;29;20048;-69
2022/12/13 02:51:01;;;;;;;14.43;9.18;;;21.00;64.60;;;;;;4896096;29;20040;-69
2022/12/13 02:53:29;;;;;;;14.43;8.75;;;21.00;64.30;;;;;;4911737;29;20152;-69
2022/12/13 02:55:56;;;;;;;14.57;8.63;;;20.80;64.30;;;;;;4935375;29;20040;-69
2022/12/13 02:58:29;;;;;;;16.55;10.43;;;20.90;64.40;;;;;;4949292;29;20126;-69
2022/12/13 03:01:04;;;;;;;16.42;10.00;;;20.80;64.50;;;;;;4949388;29;20063;-69
2022/12/13 03:03:54;;;;;;;15.20;9.23;;;20.80;64.70;;;;;;4949680;29;20469;-69
2022/12/13 03:06:44;;;;;;;14.25;9.70;;;20.80;64.70;;;;;;4949830;29;20095;-68
2022/12/13 03:09:38;;;;;;;14.45;9.52;;;20.70;64.60;;;;;;4950107;29;20473;-70
2022/12/13 03:15:21;;;;;;;;;;;20.60;64.80;;;;;;4969518;28;20491;-70
2022/12/13 03:18:14;;;;;;;13.35;9.45;;;20.70;65.20;;;;;;4969194;28;19910;-70
2022/12/13 03:20:49;;;;;;;17.83;9.65;;;20.60;65.10;;;;;;5028178;28;20123;-71
2022/12/13 03:23:16;;;;;;;15.15;10.30;;;20.60;65.10;;;;;;5070351;28;20539;-69
2022/12/13 03:25:44;;;;;;;12.45;8.35;;;20.60;64.80;;;;;;5070052;28;20036;-70
2022/12/13 03:28:11;;;;;;;14.98;9.70;;;20.60;64.90;;;;;;5070509;28;20029;-71
2022/12/13 03:30:37;;;;;;;18.15;9.75;;;20.60;64.80;;;;;;5070267;28;20048;-70
2022/12/13 03:33:03;;;;;;;11.73;7.85;;;20.50;64.90;;;;;;5070519;28;20042;-69
2022/12/13 03:35:30;;;;;;;12.52;8.15;;;20.60;65.00;;;;;;5070101;28;20036;-70
2022/12/13 03:37:56;;;;;;;15.80;9.10;;;20.50;65.00;;;;;;5070183;28;20366;-70
2022/12/13 03:40:22;;;;;;;13.05;8.75;;;20.60;64.90;;;;;;5070238;28;20041;-70
2022/12/13 03:42:48;;;;;;;13.52;8.88;;;20.60;64.70;;;;;;5069249;28;20132;-70
2022/12/13 03:45:14;;;;;;;14.85;9.18;;;20.60;64.50;;;;;;5069957;28;20086;-70
2022/12/13 03:47:40;;;;;;;14.40;8.95;;;20.60;64.40;;;;;;5070053;28;20036;-70
2022/12/13 03:50:06;;;;;;;13.20;8.35;;;20.50;64.30;;;;;;5070121;28;20029;-70
2022/12/13 03:52:32;;;;;;;13.85;9.93;;;20.60;64.20;;;;;;5068578;28;20025;-71
2022/12/13 03:54:59;;;;;;;13.02;9.18;;;20.60;64.00;;;;;;5070140;28;20024;-70
2022/12/13 03:57:25;;;;;;;15.23;9.30;;;20.60;64.00;;;;;;5070229;28;20353;-70
2022/12/13 03:59:51;;;;;;;15.10;10.65;;;20.60;63.80;;;;;;5070193;28;20037;-70
2022/12/13 04:02:17;;;;;;;19.20;12.30;;;20.50;63.90;;;;;;5072086;28;20614;-71
2022/12/13 04:04:43;;;;;;;17.17;9.93;;;20.40;63.80;;;;;;5073114;28;20116;-70
2022/12/13 04:07:08;;;;;;;16.90;10.20;;;20.50;63.90;;;;;;5072866;28;20481;-69
2022/12/13 04:09:34;;;;;;;16.38;10.80;;;20.40;64.10;;;;;;5071373;28;20036;-69
2022/12/13 04:14:45;;;;;;;17.95;10.55;;;20.20;64.20;;;;;;5052944;28;20053;-71
2022/12/13 04:17:12;;;;;;;15.18;10.55;;;20.30;64.30;;;;;;5034218;28;20044;-70
2022/12/13 04:19:38;;;;;;;13.63;9.13;;;20.30;64.20;;;;;;5017356;28;20507;-71
2022/12/13 04:22:04;;;;;;;16.48;9.40;;;20.30;64.50;;;;;;5053173;28;20147;-70
2022/12/13 04:24:30;;;;;;;19.75;10.60;;;20.10;64.60;;;;;;5029962;28;20124;-69
2022/12/13 04:26:56;;;;;;;15.77;9.43;;;20.30;64.60;;;;;;5030520;28;20061;-71
2022/12/13 04:29:22;;;;;;;16.20;9.98;;;20.30;64.30;;;;;;5030761;28;20158;-70
2022/12/13 04:31:48;;;;;;;17.02;9.48;;;20.30;64.10;;;;;;5030508;28;20068;-70
2022/12/13 04:34:14;;;;;;;17.80;9.85;;;20.20;64.10;;;;;;5030489;28;20049;-69
2022/12/13 04:36:40;;;;;;;16.33;9.65;;;20.20;64.60;;;;;;5030536;28;20144;-70
2022/12/13 04:39:06;;;;;;;15.82;9.93;;;20.20;64.50;;;;;;5013964;28;20111;-70
2022/12/13 04:41:37;;;;;;;16.42;10.23;;;20.20;64.30;;;;;;5030257;28;20120;-70
2022/12/13 04:44:05;;;;;;;14.88;9.85;;;20.30;64.20;;;;;;5030050;28;20052;-70
2022/12/13 04:46:31;;;;;;;16.98;9.20;;;20.30;63.90;;;;;;5029608;28;20680;-70
2022/12/13 04:48:57;;;;;;;15.13;9.75;;;20.50;64.00;;;;;;5029868;28;20112;-70
2022/12/13 04:51:23;;;;;;;15.63;9.40;;;20.40;63.60;;;;;;5030136;28;20033;-70
2022/12/13 04:53:49;;;;;;;16.13;10.20;;;20.40;63.60;;;;;;5030443;28;20463;-69
2022/12/13 04:56:15;;;;;;;14.20;9.82;;;20.50;64.00;;;;;;5048135;28;20041;-70
2022/12/13 04:58:41;;;;;;;15.32;9.75;;;20.40;64.00;;;;;;5052540;28;20386;-70
2022/12/13 05:01:09;;;;;;;16.10;9.80;;;20.40;63.90;;;;;;5052462;28;20473;-70
2022/12/13 05:03:36;;;;;;;15.02;10.15;;;20.40;63.90;;;;;;5034855;28;20044;-70
2022/12/13 05:06:11;;;;;;;14.90;10.32;;;20.20;64.00;;;;;;5034364;28;20688;-69
2022/12/13 05:08:37;;;;;;;16.02;9.80;;;20.30;64.20;;;;;;5016862;28;20037;-70
2022/12/13 05:11:04;;;;;;;16.42;10.30;;;20.20;64.10;;;;;;5016979;28;20041;-71
2022/12/13 05:13:30;;;;;;;20.27;10.30;;;20.20;64.20;;;;;;5051062;28;20149;-70
2022/12/13 05:15:57;;;;;;;14.88;9.55;;;20.20;64.70;;;;;;5052051;28;20044;-70
2022/12/13 05:18:24;;;;;;;15.88;9.32;;;20.10;65.00;;;;;;5034389;28;20482;-71
2022/12/13 05:20:50;;;;;;;17.33;9.32;;;20.10;64.40;;;;;;5052371;28;20047;-70
2022/12/13 05:23:17;;;;;;;16.00;10.05;;;20.20;64.60;;;;;;5052187;28;20061;-70
2022/12/13 05:25:43;;;;;;;14.30;8.98;;;20.10;64.00;;;;;;5000073;28;20094;-70
2022/12/13 05:28:09;;;;;;;16.27;10.40;;;20.10;64.30;;;;;;5052093;28;20025;-70
2022/12/13 05:30:42;;;;;;;17.48;10.10;;;20.20;64.40;;;;;;5051991;28;20454;-70
2022/12/13 05:33:08;;;;;;;19.52;11.25;;;20.20;64.40;;;;;;5051932;28;20021;-70
2022/12/13 05:35:35;;;;;;;20.83;12.10;;;20.20;64.20;;;;;;5052090;28;20033;-70
2022/12/13 05:38:01;;;;;;;26.88;14.45;;;20.10;64.20;;;;;;5051899;28;20025;-70
2022/12/13 05:40:28;;;;;;;24.73;13.77;;;20.00;64.20;;;;;;5017389;28;20041;-70
2022/12/13 05:42:55;;;;;;;24.02;13.05;;;20.10;64.50;;;;;;5051821;28;20059;-70
2022/12/13 05:45:21;;;;;;;18.70;11.63;;;20.10;64.70;;;;;;5051577;28;20585;-71
2022/12/13 05:47:47;;;;;;;18.98;12.05;;;20.10;64.50;;;;;;5051997;28;20040;-70
2022/12/13 05:50:15;;;;;;;20.15;12.02;;;20.10;64.50;;;;;;5051926;28;20386;-71
2022/12/13 05:52:44;;;;;;;17.92;10.95;;;20.00;64.40;;;;;;5051554;28;20037;-70
2022/12/13 05:55:10;;;;;;;18.58;11.43;;;20.00;64.20;;;;;;5051356;28;20043;-70
2022/12/13 05:57:37;;;;;;;16.55;10.77;;;20.20;64.30;;;;;;5051378;28;20365;-70
2022/12/13 06:00:06;;;;;;;16.52;10.77;;;20.10;64.40;;;;;;5051407;28;20028;-70
2022/12/13 06:02:39;;;;;;;22.17;12.10;;;20.10;63.90;;;;;;5033748;28;20033;-70
2022/12/13 06:05:06;;;;;;;23.83;12.13;;;20.10;63.80;;;;;;5051525;28;20025;-69
2022/12/13 06:07:32;;;;;;;20.88;11.23;;;20.10;63.70;;;;;;5051265;28;20398;-70
2022/12/13 06:09:58;;;;;;;17.75;10.52;;;20.10;63.90;;;;;;5051318;28;20041;-70
2022/12/13 06:12:24;;;;;;;25.23;12.85;;;20.00;63.90;;;;;;5053656;28;20489;-70
2022/12/13 06:14:52;;;;;;;17.60;11.85;;;20.00;63.90;;;;;;5051317;28;20048;-70
2022/12/13 06:17:18;;;;;;;16.13;10.05;;;20.00;64.10;;;;;;5053658;28;20105;-70
2022/12/13 06:19:45;;;;;;;15.40;9.18;;;19.90;64.20;;;;;;5051242;28;20021;-69
2022/12/13 06:22:11;;;;;;;11.60;7.63;;;20.00;64.30;;;;;;5051012;28;20036;-69
2022/12/13 06:24:37;;;;;;;15.65;8.30;;;19.90;64.30;;;;;;5050801;28;20083;-70
2022/12/13 06:27:04;;;;;;;11.20;7.50;;;19.90;64.20;;;;;;5050818;28;20045;-71
2022/12/13 06:29:30;;;;;;;11.40;7.43;;;20.00;64.40;;;;;;5050969;28;20114;-69
2022/12/13 06:31:58;;;;;;;13.40;8.20;;;19.90;64.60;;;;;;5051008;28;20037;-69
2022/12/13 06:34:25;;;;;;;14.95;8.80;;;19.90;64.00;;;;;;5050739;28;20040;-70
2022/12/13 06:36:51;;;;;;;12.15;7.47;;;19.90;64.10;;;;;;5050716;28;20078;-70
2022/12/13 06:39:18;;;;;;;13.48;8.48;;;20.00;63.70;;;;;;5032839;28;20631;-70
2022/12/13 06:41:44;;;;;;;13.95;8.95;;;20.10;63.60;;;;;;5050512;28;20048;-70
2022/12/13 06:44:10;;;;;;;18.70;10.68;;;19.90;63.40;;;;;;5012708;28;20049;-70
2022/12/13 06:46:36;;;;;;;23.90;12.57;;;19.90;63.50;;;;;;5060211;28;20032;-69
2022/12/13 06:49:03;;;;;;;20.10;13.82;;;19.90;63.40;;;;;;5060524;28;20075;-69
2022/12/13 06:51:29;;;;;;;18.00;12.20;;;19.90;62.10;;;;;;5059294;28;20040;-69
2022/12/13 06:53:55;;;;;;;15.13;9.13;;;19.90;62.50;;;;;;5060605;28;20029;-70
2022/12/13 06:56:21;;;;;;;1.75;1.65;;;20.00;54.20;;;;;;5060581;28;20104;-71
2022/12/13 06:58:47;;;;;;;1.25;1.15;;;20.40;64.20;;;;;;5059064;28;20036;-72
2022/12/13 07:01:16;;;;;;;0.75;0.75;;;20.80;62.80;;;;;;5060399;28;20028;-72
2022/12/13 07:03:42;;;;;;;0.80;0.80;;;21.10;62.00;;;;;;5059207;28;20029;-71
2022/12/13 07:06:17;;;;;;;1.05;1.02;;;21.30;61.60;;;;;;5040638;28;20028;-71
2022/12/13 07:08:50;;;;;;;1.58;1.52;;;21.40;58.10;;;;;;5059226;28;20063;-71
2022/12/13 07:11:18;;;;;;;26.98;16.98;;;21.70;56.70;;;;;;5057633;28;20063;-70
2022/12/13 07:13:45;;;;;;;24.02;16.67;;;21.70;50.60;;;;;;5059744;28;20049;-71
2022/12/13 07:16:11;;;;;;;21.73;12.88;;;21.60;48.10;;;;;;5059103;28;20031;-68
2022/12/13 07:18:38;;;;;;;20.48;13.50;;;21.40;49.40;;;;;;5054940;28;20036;-69
2022/12/13 07:21:05;;;;;;;31.00;16.33;;;21.40;54.90;;;;;;5018112;28;20127;-68
2022/12/13 07:23:33;;;;;;;25.08;15.55;;;21.40;55.30;;;;;;5055720;28;20025;-71
2022/12/13 07:25:59;;;;;;;27.45;16.48;;;21.30;55.90;;;;;;5056862;28;20382;-72
2022/12/13 07:28:25;;;;;;;27.08;15.38;;;21.30;56.20;;;;;;5050455;28;20033;-72
2022/12/13 07:30:51;;;;;;;23.00;14.52;;;21.10;56.50;;;;;;5068727;28;20051;-70
2022/12/13 07:33:17;;;;;;;22.45;12.98;;;21.20;57.00;;;;;;5058595;28;20021;-71
2022/12/13 07:35:43;;;;;;;20.38;12.48;;;21.00;57.10;;;;;;5070211;28;20028;-71
2022/12/13 07:38:11;;;;;;;22.33;12.38;;;21.00;57.40;;;;;;5049380;28;20429;-69
2022/12/13 07:40:38;;;;;;;18.13;11.88;;;21.10;60.00;;;;;;5061342;28;20475;-70
2022/12/13 07:43:05;;;;;;;17.58;12.02;;;20.90;58.60;;;;;;5060394;28;20029;-70
2022/12/13 07:45:32;;;;;;;18.65;11.00;;;21.00;58.80;;;;;;5036287;28;20033;-70
2022/12/13 07:48:02;;;;;;;17.05;10.80;;;20.80;59.10;;;;;;5053632;28;20040;-69
2022/12/13 07:50:28;;;;;;;16.90;10.95;;;20.80;59.60;;;;;;5054156;28;20029;-70
2022/12/13 07:52:54;;;;;;;19.60;12.10;;;20.70;59.90;;;;;;5053881;28;20548;-71
2022/12/13 07:55:20;;;;;;;21.77;10.73;;;20.70;60.10;;;;;;5053910;28;20483;-70
2022/12/13 07:57:46;;;;;;;17.10;10.82;;;20.60;60.20;;;;;;5059207;28;20032;-71
2022/12/13 08:00:13;;;;;;;19.52;11.65;;;20.50;60.60;;;;;;5059264;28;20056;-71
2022/12/13 08:02:40;;;;;;;17.10;10.07;;;20.40;60.60;;;;;;5052678;28;20044;-70
2022/12/13 08:05:07;;;;;;;12.68;7.60;;;20.40;61.00;;;;;;5052757;28;20111;-70
2022/12/13 08:07:33;;;;;;;19.45;9.07;;;20.50;61.50;;;;;;5055124;28;20029;-70
2022/12/13 08:09:59;;;;;;;10.38;5.80;;;20.40;61.30;;;;;;5052647;28;20043;-70
2022/12/13 08:12:25;;;;;;;7.90;5.47;;;20.50;61.40;;;;;;5053302;28;20032;-70
2022/12/13 08:14:51;;;;;;;13.68;5.88;;;20.50;61.20;;;;;;5053375;28;20044;-70
2022/12/13 08:17:17;;;;;;;7.97;5.43;;;20.50;61.00;;;;;;5053417;28;20033;-69
2022/12/13 08:19:43;;;;;;;9.27;5.50;;;20.60;61.80;;;;;;5035502;28;20056;-70
2022/12/13 08:22:12;;;;;;;8.95;5.68;;;20.60;61.00;;;;;;5066261;28;20063;-70
2022/12/13 08:24:39;;;;;;;7.50;5.43;;;20.60;60.80;;;;;;5073190;28;20397;-68
2022/12/13 08:27:05;;;;;;;8.75;4.60;;;20.60;61.20;;;;;;5073019;28;20044;-70
2022/12/13 08:29:33;;;;;;;7.15;5.35;;;20.60;61.30;;;;;;5037516;28;20063;-69
2022/12/13 08:32:03;;;;;;;6.13;4.50;;;20.90;60.50;;;;;;5066934;28;20459;-71
2022/12/13 08:34:30;;;;;;;6.28;4.80;;;20.80;60.30;;;;;;5053156;28;20029;-70
2022/12/13 08:36:56;;;;;;;6.55;4.53;;;20.90;60.50;;;;;;5052832;28;20040;-69
2022/12/13 08:39:22;;;;;;;6.95;4.63;;;21.00;60.40;;;;;;5035553;28;20040;-71
2022/12/13 08:41:48;;;;;;;6.95;4.25;;;21.00;59.70;;;;;;5052945;28;20063;-70
2022/12/13 08:44:14;;;;;;;7.30;5.05;;;21.00;60.20;;;;;;5052866;28;20383;-69
2022/12/13 08:46:40;;;;;;;8.40;4.97;;;21.00;60.10;;;;;;5052588;28;20094;-70
2022/12/13 08:49:06;;;;;;;8.23;5.15;;;20.80;60.20;;;;;;5052610;28;20079;-70
2022/12/13 08:51:32;;;;;;;5.28;4.22;;;20.90;60.00;;;;;;5033995;28;20052;-70
2022/12/13 08:53:58;;;;;;;7.63;5.30;;;21.00;60.10;;;;;;5052957;28;20414;-69
2022/12/13 08:56:24;;;;;;;7.50;4.95;;;21.20;59.60;;;;;;5052847;28;20103;-70
2022/12/13 08:58:50;;;;;;;6.75;4.97;;;21.10;59.30;;;;;;5052515;28;20025;-71
2022/12/13 09:01:17;;;;;;;8.38;5.40;;;21.30;59.30;;;;;;5052597;28;20052;-70
2022/12/13 09:03:43;;;;;;;8.18;5.40;;;21.20;59.50;;;;;;5072610;28;20033;-68
2022/12/13 09:06:12;;;;;;;7.43;5.05;;;21.30;59.70;;;;;;5072329;28;20044;-69
2022/12/13 09:08:38;;;;;;;7.47;5.38;;;21.10;59.60;;;;;;5054391;28;20127;-68
2022/12/13 09:11:05;;;;;;;8.25;5.65;;;21.20;59.70;;;;;;5072619;28;20037;-71
2022/12/13 09:13:34;;;;;;;7.57;4.88;;;21.40;59.60;;;;;;5072338;28;20044;-71
2022/12/13 09:16:10;;;;;;;8.70;6.18;;;21.40;63.30;;;;;;5072037;28;20039;-68
2022/12/13 09:18:36;;;;;;;10.85;5.85;;;21.50;66.50;;;;;;5072095;28;20501;-70
2022/12/13 09:21:11;;;;;;;10.30;6.72;;;21.60;62.10;;;;;;5060622;28;20054;-68
2022/12/13 09:23:39;;;;;;;11.23;6.97;;;21.50;61.70;;;;;;5044442;28;20045;-68
2022/12/13 09:26:06;;;;;;;7.95;5.20;;;21.40;61.80;;;;;;5053936;28;20093;-68
2022/12/13 09:28:33;;;;;;;10.90;7.72;;;21.50;61.60;;;;;;5046602;28;20040;-67
2022/12/13 09:30:59;;;;;;;8.32;6.03;;;21.50;61.70;;;;;;5044604;28;20585;-67
2022/12/13 09:33:25;;;;;;;9.70;6.55;;;21.30;62.10;;;;;;5061219;28;20056;-67
2022/12/13 09:35:52;;;;;;;11.38;7.15;;;21.30;62.10;;;;;;5069726;28;20032;-68
2022/12/13 09:38:18;;;;;;;10.93;6.43;;;21.50;62.00;;;;;;5053867;28;20032;-68
2022/12/13 09:40:47;;;;;;;8.20;6.30;;;21.50;61.10;;;;;;5071823;28;20454;-68
2022/12/13 09:43:24;;;;;;;8.88;6.38;;;21.60;61.40;;;;;;5008817;28;20087;-70
2022/12/13 09:45:51;;;;;;;9.63;6.35;;;21.60;60.80;;;;;;5051933;28;20033;-70
2022/12/13 09:48:20;;;;;;;7.55;5.95;;;21.50;62.00;;;;;;5051729;28;20029;-69
2022/12/13 09:50:46;;;;;;;9.65;6.40;;;21.50;62.10;;;;;;5051732;28;20036;-66
2022/12/13 09:53:16;;;;;;;10.30;6.47;;;21.60;61.80;;;;;;5052005;28;20033;-70
2022/12/13 09:55:48;;;;;;;10.05;6.65;;;21.50;62.30;;;;;;5051586;28;20021;-66
2022/12/13 09:58:20;;;;;;;8.98;6.60;;;21.50;61.70;;;;;;5051569;28;20200;-70
2022/12/13 10:00:50;;;;;;;12.27;7.33;;;21.50;62.20;;;;;;5050984;28;20462;-68
2022/12/13 10:03:19;;;;;;;10.40;7.47;;;21.50;62.40;;;;;;5053834;28;20365;-69
2022/12/13 10:05:55;;;;;;;8.95;7.05;;;21.40;62.10;;;;;;5051553;28;20033;-69
2022/12/13 10:08:24;;;;;;;11.75;7.05;;;21.50;48.00;;;;;;5051425;28;20056;-69
2022/12/13 10:10:51;;;;;;;8.93;6.68;;;21.60;50.00;;;;;;5051273;28;20130;-69
2022/12/13 10:13:42;;;;;;;11.82;7.05;;;21.70;48.10;;;;;;5051393;28;20052;-71
2022/12/13 10:16:30;;;;;;;11.18;5.45;;;22.00;48.40;;;;;;5046393;28;20032;-67
2022/12/13 10:18:56;;;;;;;11.13;8.32;;;22.10;46.30;;;;;;5070888;28;20112;-69
2022/12/13 10:21:25;;;;;;;10.18;6.93;;;22.10;45.70;;;;;;5070831;28;20090;-70
2022/12/13 10:23:51;;;;;;;9.02;7.05;;;22.20;46.00;;;;;;5070652;28;20047;-71
2022/12/13 10:26:17;;;;;;;7.60;5.60;;;22.20;46.70;;;;;;5070436;28;20631;-69
2022/12/13 10:28:43;;;;;;;11.23;8.30;;;22.20;47.00;;;;;;5070702;28;20123;-69
2022/12/13 10:31:19;;;;;;;10.55;7.32;;;22.20;46.00;;;;;;5070747;28;20351;-69
2022/12/13 10:33:54;;;;;;;20.25;7.55;;;22.30;45.30;;;;;;5060038;28;20044;-71
2022/12/13 10:36:37;;;;;;;8.50;5.50;;;22.40;50.50;;;;;;5070243;28;20573;-69
2022/12/13 10:39:04;;;;;;;8.27;5.80;;;22.50;51.90;;;;;;5070570;28;20098;-70
2022/12/13 10:41:38;;;;;;;11.13;7.72;;;22.60;47.50;;;;;;5070400;28;20039;-69
2022/12/13 10:44:10;;;;;;;9.13;6.30;;;22.60;42.50;;;;;;5053027;28;20032;-69
2022/12/13 10:46:45;;;;;;;7.88;6.07;;;22.50;42.40;;;;;;5052665;28;20036;-69
2022/12/13 10:49:23;;;;;;;10.45;5.50;;;22.60;43.40;;;;;;5034731;28;20090;-70
2022/12/13 10:51:52;;;;;;;8.02;6.57;;;22.60;47.20;;;;;;5070502;28;20546;-70
2022/12/13 10:54:30;;;;;;;8.85;7.13;;;22.60;45.80;;;;;;5070602;28;20043;-70
2022/12/13 10:56:59;;;;;;;9.95;7.03;;;22.60;46.00;;;;;;5052702;28;20052;-71
2022/12/13 10:59:29;;;;;;;11.65;7.97;;;22.60;46.40;;;;;;5070406;28;20534;-70
2022/12/13 11:01:55;;;;;;;11.00;8.05;;;22.60;48.10;;;;;;5070613;28;20223;-70
2022/12/13 11:04:31;;;;;;;10.60;6.38;;;22.70;46.80;;;;;;5070595;28;20104;-70
2022/12/13 11:07:17;;;;;;;9.65;7.38;;;22.60;47.10;;;;;;5070455;28;20698;-71
2022/12/13 11:09:43;;;;;;;9.85;7.45;;;22.80;57.80;;;;;;5070569;28;20042;-71
2022/12/13 11:12:13;;;;;;;10.48;7.65;;;22.90;58.50;;;;;;5074259;28;20032;-70
2022/12/13 11:14:55;;;;;;;9.75;6.65;;;22.70;58.40;;;;;;5074632;28;20488;-71
2022/12/13 11:17:25;;;;;;;10.27;7.38;;;22.70;58.40;;;;;;5074852;28;20107;-70
2022/12/13 11:19:54;;;;;;;10.80;8.15;;;22.50;58.40;;;;;;5074346;28;20123;-70
2022/12/13 11:22:27;;;;;;;10.10;7.30;;;22.30;58.80;;;;;;5056056;28;20115;-71
2022/12/13 11:25:08;;;;;;;9.63;6.57;;;22.10;60.00;;;;;;5073648;28;20071;-71
2022/12/13 11:27:54;;;;;;;9.88;6.57;;;22.10;60.00;;;;;;5073939;28;20052;-69
2022/12/13 11:30:44;;;;;;;7.55;5.57;;;22.00;60.60;;;;;;5021721;28;20138;-68
2022/12/13 11:33:28;;;;;;;8.32;5.88;;;21.90;59.40;;;;;;5058180;28;20494;-66
2022/12/13 11:36:11;;;;;;;7.75;5.95;;;21.80;60.80;;;;;;5054367;28;20040;-68
2022/12/13 11:38:55;;;;;;;7.40;6.00;;;21.80;61.10;;;;;;5054159;28;20029;-69
2022/12/13 11:41:46;;;;;;;7.28;5.78;;;21.80;61.90;;;;;;5031409;28;20093;-69
2022/12/13 11:44:18;;;;;;;6.45;5.40;;;21.80;61.00;;;;;;5031188;28;20094;-69
2022/12/13 11:46:50;;;;;;;8.40;5.55;;;21.80;61.40;;;;;;5031595;28;20125;-68
2022/12/13 11:49:25;;;;;;;8.20;4.53;;;22.00;61.50;;;;;;5015142;28;20076;-69
2022/12/13 11:52:01;;;;;;;8.98;5.40;;;21.80;61.50;;;;;;5031589;28;20046;-69
2022/12/13 11:54:41;;;;;;;8.00;5.90;;;21.80;62.50;;;;;;5031276;28;20037;-69
2022/12/13 11:57:18;;;;;;;7.25;5.28;;;21.70;61.70;;;;;;5031233;28;20063;-68
2022/12/13 11:59:53;;;;;;;6.60;5.18;;;21.70;63.30;;;;;;5030902;28;20037;-68
2022/12/13 12:02:32;;;;;;;8.13;5.78;;;21.70;63.50;;;;;;5031004;28;20046;-68
2022/12/13 12:05:01;;;;;;;6.97;5.55;;;21.60;63.30;;;;;;5031185;28;20115;-67
2022/12/13 12:07:40;;;;;;;7.88;5.65;;;21.50;61.80;;;;;;5031031;28;20053;-68
2022/12/13 12:10:30;;;;;;;9.75;5.70;;;21.40;63.50;;;;;;5030922;28;20070;-68
2022/12/13 12:13:32;;;;;;;6.80;4.93;;;21.40;64.80;;;;;;5051852;28;20045;-67
2022/12/13 12:16:07;;;;;;;7.20;5.53;;;21.40;64.40;;;;;;4969998;28;20055;-67
2022/12/13 12:18:32;;;;;;;6.45;5.05;;;21.30;65.20;;;;;;4952814;28;20027;-68
2022/12/13 12:20:58;;;;;;;6.80;5.88;;;21.10;65.30;;;;;;4952616;29;20039;-68
2022/12/13 12:23:45;;;;;;;8.07;5.22;;;21.30;65.30;;;;;;4951975;28;20676;-68
2022/12/13 12:26:15;;;;;;;7.32;6.30;;;21.30;63.50;;;;;;4952332;29;20058;-67
2022/12/13 12:29:12;;;;;;;7.75;5.70;;;21.20;65.30;;;;;;4952454;29;20051;-69
2022/12/13 12:32:16;;;;;;;7.35;5.85;;;21.20;65.30;;;;;;4936665;29;20151;-68
2022/12/13 12:34:52;;;;;;;9.30;6.15;;;21.30;66.40;;;;;;4947217;29;20620;-68
2022/12/13 12:37:48;;;;;;;10.50;6.22;;;21.20;65.40;;;;;;4952464;29;20571;-68
2022/12/13 12:40:39;;;;;;;8.48;5.82;;;21.20;65.00;;;;;;4952382;29;20051;-68
2022/12/13 12:43:22;;;;;;;7.25;5.68;;;21.30;65.00;;;;;;4952557;29;20154;-67
2022/12/13 12:46:07;;;;;;;8.65;6.40;;;21.10;64.80;;;;;;4952198;29;20051;-68
2022/12/13 12:48:36;;;;;;;7.72;6.00;;;21.20;64.70;;;;;;4952432;29;20477;-69
2022/12/13 12:51:25;;;;;;;8.05;6.00;;;21.20;64.70;;;;;;4929717;29;20055;-69
2022/12/13 12:54:13;;;;;;;7.60;6.30;;;21.20;61.00;;;;;;4971630;28;20090;-69
2022/12/13 12:56:56;;;;;;;8.52;6.22;;;21.00;60.80;;;;;;4971582;28;20612;-69
2022/12/13 12:59:47;;;;;;;8.13;6.88;;;20.90;64.20;;;;;;4971534;28;20057;-70